• Join FlightAware (Why Join?)
  • Login
  • US Flag 
11:53PM EDT


 

Airport Tracker/Info


-or-


 

Live Flight TrackerFlight Track Log ✈ EGF4010 ✈ 01-May-2013 ✈ KFAR - KORD

Flight Track Log - Related Links

Times and Time Zones

All times are in EDT time to prevent confusion due to time zone crossing. See the EGF4010 flight status page for this flight to view local times or setup timezone preferences in your user account.

Time Position Orientation Groundspeed Altitude Reporting Facility
EDT Latitude Longitude Course Direction KTS MPH feet Rate Location/Type
06:42PM 46.9503 -96.8006 122° Southeast 149 171 2,700  Level Minneapolis Center
06:43PM 46.9717 -96.7369 64° Northeast 225 259 5,400 2,400 Climbing Minneapolis Center
06:44PM 46.7120 -96.7620 146° Southeast  Level FlightAware Approximate
06:44PM 46.9075 -96.6636 142° Southeast 291 335 7,700  Level Minneapolis Center
06:45PM 46.6536 -96.6477 123° Southeast  Level FlightAware Approximate
06:46PM 46.6002 -96.5269 121° Southeast  Level FlightAware Approximate
06:46PM 46.8367 -96.5897 144° Southeast 301 346 10,300  Level Minneapolis Center
06:47PM 46.5490 -96.4042 121° Southeast  Level FlightAware Approximate
06:47PM 46.7397 -96.4825 143° Southeast 365 420 11,800  Level Minneapolis Center
06:48PM 46.4950 -96.2790 122° Southeast  Level FlightAware Approximate
06:48PM 46.6508 -96.3822 142° Southeast 383 441 13,600  Level Minneapolis Center
06:49PM 46.5697 -96.2861 141° Southeast 386 444 15,500 1,980 Climbing Minneapolis Center
06:50PM 46.4786 -96.1783 141° Southeast 379 436 17,800 1,680 Climbing Minneapolis Center
06:51PM 46.4161 -96.0822 133° Southeast 378 435 19,000 1,500 Climbing Minneapolis Center
06:52PM 46.3572 -95.9556 124° Southeast 382 440 21,000 1,980 Climbing Minneapolis Center
06:53PM 46.2961 -95.8178 123° Southeast 384 442 23,200 2,220 Climbing Minneapolis Center
06:54PM 46.2283 -95.6681 123° Southeast 376 433 25,600 2,100 Climbing Minneapolis Center
06:55PM 46.1725 -95.5469 124° Southeast 366 421 27,600 1,920 Climbing Minneapolis Center
06:56PM 46.1186 -95.4283 123° Southeast 357 411 29,600 1,920 Climbing Minneapolis Center
06:57PM 46.0661 -95.3128 123° Southeast 350 403 31,600 1,500 Climbing Minneapolis Center
06:58PM 46.0122 -95.1986 124° Southeast 347 399 32,700 960 Climbing Minneapolis Center
06:59PM 45.9575 -95.0783 123° Southeast 352 405 33,700 1,020 Climbing Minneapolis Center
07:00PM 45.8878 -94.9253 123° Southeast 371 427 34,900 1,020 Climbing Minneapolis Center
07:01PM 45.8272 -94.7981 124° Southeast 383 441 35,900 960 Climbing Minneapolis Center
07:02PM 45.7669 -94.6683 124° Southeast 390 449 36,900 480 Climbing Minneapolis Center
07:03PM 45.7050 -94.5372 124° Southeast 396 456 37,000  Climbing Minneapolis Center
07:04PM 45.6406 -94.4003 124° Southeast 410 472 37,000  Level Minneapolis Center
07:06PM 45.5753 -94.2636 124° Southeast 417 480 37,000  Level Minneapolis Center
07:07PM 45.4869 -94.0764 124° Southeast 408 470 37,000  Level Minneapolis Center
07:08PM 45.4236 -93.9461 125° Southeast 401 461 37,000  Level Minneapolis Center
07:09PM 45.3603 -93.8139 124° Southeast 404 465 37,000  Level Minneapolis Center
07:10PM 45.2956 -93.6811 125° Southeast 408 470 37,000  Level Minneapolis Center
07:11PM 45.2314 -93.5461 124° Southeast 412 474 37,000  Level Minneapolis Center
07:12PM 45.1642 -93.4111 125° Southeast 416 479 37,000  Level Minneapolis Center
07:13PM 45.0908 -93.2417 121° Southeast 420 483 37,000  Level Minneapolis Center
07:14PM 45.0303 -93.0958 120° Southeast 426 490 37,000  Level Minneapolis Center
07:15PM 44.9689 -92.9500 121° Southeast 427 491 37,000  Level Minneapolis Center
07:16PM 44.9075 -92.8058 121° Southeast 427 491 37,000  Level Minneapolis Center
07:17PM 44.8464 -92.6603 121° Southeast 428 493 37,000  Level Minneapolis Center
07:18PM 44.7853 -92.5175 121° Southeast 427 491 37,000  Level Minneapolis Center
07:19PM 44.7233 -92.3772 122° Southeast 425 489 37,000  Level Minneapolis Center
07:20PM 44.6292 -92.1919 125° Southeast 418 481 37,000  Level Minneapolis Center
07:21PM 44.5633 -92.0589 125° Southeast 416 479 37,000  Level Minneapolis Center
07:22PM 44.4975 -91.9261 125° Southeast 417 480 37,000  Level Minneapolis Center
07:23PM 44.4442 -91.8211 125° Southeast 415 478 37,000 -780 Level Minneapolis Center
07:24PM 44.3650 -91.6625 125° Southeast 415 478 35,400 -1,920 Descending Minneapolis Center
07:25PM 44.2947 -91.5275 126° Southeast 426 490 33,000 -2,160 Descending Minneapolis Center
07:26PM 44.2114 -91.3611 125° Southeast 434 499 31,000 -1,020 Descending Minneapolis Center
07:27PM 44.1519 -91.2442 125° Southeast 435 501 31,000  Level Minneapolis Center
07:28PM 44.0689 -91.0803 125° Southeast 436 502 31,000  Level Minneapolis Center
07:29PM 43.9989 -90.9439 125° Southeast 435 501 31,000  Level Minneapolis Center
07:30PM 43.9264 -90.8089 127° Southeast 438 504 31,000  Level Minneapolis Center
07:32PM 43.8578 -90.6733 125° Southeast 435 501 31,000  Level Minneapolis Center
07:33PM 43.7764 -90.5189 126° Southeast 437 503 31,000  Level Minneapolis Center
07:34PM 43.7167 -90.4044 126° Southeast 432 497 31,000 -300 Level Minneapolis Center
07:35PM 43.6314 -90.2433 126° Southeast 434 499 30,500 -1,320 Descending Minneapolis Center
07:36PM 43.5636 -90.1153 126° Southeast 434 499 28,300 -2,100 Descending Minneapolis Center
07:37PM 43.4922 -89.9800 126° Southeast 437 503 25,800 -2,640 Descending Minneapolis Center
07:37PM 43.4281 -89.8642 127° Southeast 447 514 23,800 -2,880 Descending Chicago Center
07:38PM 43.3564 -89.7314 127° Southeast 439 505 21,400 -2,160 Descending Chicago Center
07:39PM 43.2853 -89.5992 126° Southeast 430 495 19,400 -1,860 Descending Chicago Center
07:40PM 43.2153 -89.4725 127° Southeast 422 486 17,600 -1,680 Descending Chicago Center
07:42PM 43.1475 -89.3517 128° Southeast 406 467 16,000 -1,320 Descending Chicago Center
07:43PM 43.0336 -89.2950 160° South 379 436 14,900 -1,020 Descending Chicago Center
07:44PM 42.9342 -89.2553 164° South 374 430 13,900 -1,020 Descending Chicago Center
07:45PM 42.8378 -89.2178 164° South 363 418 12,800 -1,020 Descending Chicago Center
07:46PM 42.7467 -89.1803 163° South 348 400 11,800 -900 Descending Chicago Center
07:47PM 42.6575 -89.1453 164° South 338 389 11,000 -420 Descending Chicago Center
07:48PM 42.5592 -89.0914 158° South 341 392 11,000  Level Chicago Center
07:49PM 42.5175 -88.9744 116° Southeast 346 398 11,000  Level Chicago Center
07:50PM 42.4811 -88.8506 112° Southeast 353 406 11,000 -300 Level Chicago Center
07:51PM 42.4456 -88.7319 112° Southeast 344 396 10,400 -780 Descending Chicago Center
07:52PM 42.4164 -88.6369 113° Southeast 283 326 9,400 -720 Descending Chicago Center
07:53PM 42.3806 -88.5217 113° Southeast 282 325 9,000 -240 Descending Chicago Center
07:54PM 42.3361 -88.4347 125° Southeast 283 326 8,900 -900 Descending Chicago Center
07:55PM 42.2933 -88.3600 128° Southeast 276 318 7,200 -1,800 Descending Chicago Center
07:56PM 42.2406 -88.2692 128° Southeast 263 303 5,200 -1,140 Descending Chicago Center
07:57PM 42.1972 -88.1933 128° Southeast 257 296 4,900 -180 Descending Chicago Center
07:58PM 42.1544 -88.1197 128° Southeast 254 292 4,900 -780 Level Chicago Center
07:59PM 42.1019 -88.0597 140° Southeast 251 289 3,400 -1,500 Descending Chicago Center